createdAt,value
2017-05-06T00:00:33.093Z,1020.25
2017-05-06T00:01:41.989Z,1020.21
2017-05-06T00:02:51.206Z,1020.18
2017-05-06T00:04:00.093Z,1020.2
2017-05-06T00:05:09.782Z,1020.19
2017-05-06T00:06:19.000Z,1020.15
2017-05-06T00:07:28.218Z,1020.15
2017-05-06T00:08:37.112Z,1020.15
2017-05-06T00:09:46.980Z,1020.19
2017-05-06T00:10:56.376Z,1020.13
2017-05-06T00:12:05.267Z,1020.17
2017-05-06T00:13:14.490Z,1020.21
2017-05-06T00:14:23.706Z,1020.17
2017-05-06T00:15:32.927Z,1020.17
2017-05-06T00:16:41.913Z,1020.18
2017-05-06T00:17:51.454Z,1020.14
2017-05-06T00:19:00.994Z,1020.15
2017-05-06T00:20:10.212Z,1020.13
2017-05-06T00:21:19.103Z,1020.12
2017-05-06T00:22:28.427Z,1020.11
2017-05-06T00:23:37.312Z,1020.11
2017-05-06T00:24:46.206Z,1020.1
2017-05-06T00:25:55.096Z,1020.04
2017-05-06T00:27:03.985Z,1020.09
2017-05-06T00:28:13.300Z,1020.05
2017-05-06T00:29:22.192Z,1020.03
2017-05-06T00:30:31.407Z,1019.98
2017-05-06T00:31:40.624Z,1019.99
2017-05-06T00:32:49.870Z,1020.01
2017-05-06T00:33:59.478Z,1019.98
2017-05-06T00:35:09.020Z,1019.92
2017-05-06T00:36:18.237Z,1019.89
2017-05-06T00:37:27.124Z,1019.94
2017-05-06T00:38:36.338Z,1019.95
2017-05-06T00:39:45.336Z,1019.9
2017-05-06T00:40:54.223Z,1019.89
2017-05-06T00:42:03.114Z,1019.89
2017-05-06T00:43:12.654Z,1019.89
2017-05-06T00:44:21.545Z,1019.86
2017-05-06T00:45:30.701Z,1019.88
2017-05-06T00:46:39.593Z,1019.9
2017-05-06T00:47:48.807Z,1019.87
2017-05-06T00:48:58.017Z,1019.87
2017-05-06T00:50:07.239Z,1019.83
2017-05-06T00:51:17.252Z,1019.83
2017-05-06T00:52:26.140Z,1019.78
2017-05-06T00:53:35.679Z,1019.76
2017-05-06T00:54:44.573Z,1019.74
2017-05-06T00:55:53.787Z,1019.72
2017-05-06T00:57:03.302Z,1019.74
2017-05-06T00:58:12.515Z,1019.7
2017-05-06T00:59:22.430Z,1019.68
2017-05-06T01:00:31.973Z,1019.69
2017-05-06T01:01:41.511Z,1019.64
2017-05-06T01:02:50.399Z,1019.64
2017-05-06T01:03:59.611Z,1019.67
2017-05-06T01:05:08.501Z,1019.66
2017-05-06T01:06:17.717Z,1019.63
2017-05-06T01:07:26.934Z,1019.62
2017-05-06T01:08:36.199Z,1019.65
2017-05-06T01:09:45.409Z,1019.61
2017-05-06T01:10:54.627Z,1019.63
2017-05-06T01:12:03.513Z,1019.59
2017-05-06T01:13:13.056Z,1019.58
2017-05-06T01:14:22.438Z,1019.6
2017-05-06T01:15:31.330Z,1019.54
2017-05-06T01:16:40.542Z,1019.58
2017-05-06T01:17:50.081Z,1019.58
2017-05-06T01:18:59.309Z,1019.58
2017-05-06T01:20:08.523Z,1019.61
2017-05-06T01:21:17.416Z,1019.61
2017-05-06T01:22:26.306Z,1019.6
2017-05-06T01:23:35.842Z,1019.59
2017-05-06T01:24:45.057Z,1019.54
2017-05-06T01:25:54.968Z,1019.54
2017-05-06T01:27:03.855Z,1019.51
2017-05-06T01:28:12.746Z,1019.48
2017-05-06T01:29:21.965Z,1019.49
2017-05-06T01:30:31.179Z,1019.5
2017-05-06T01:31:40.315Z,1019.44
2017-05-06T01:32:49.202Z,1019.47
2017-05-06T01:33:59.393Z,1019.45
2017-05-06T01:35:08.609Z,1019.4
2017-05-06T01:36:17.852Z,1019.41
2017-05-06T01:37:27.641Z,1019.4
2017-05-06T01:38:36.868Z,1019.39
2017-05-06T01:39:46.736Z,1019.42
2017-05-06T01:40:55.632Z,1019.31
2017-05-06T01:42:04.849Z,1019.34
2017-05-06T01:43:13.792Z,1019.3
2017-05-06T01:44:23.009Z,1019.35
2017-05-06T01:45:32.879Z,1019.34
2017-05-06T01:46:41.764Z,1019.29
2017-05-06T01:47:50.983Z,1019.29
2017-05-06T01:49:00.450Z,1019.28
2017-05-06T01:50:09.348Z,1019.26
2017-05-06T01:51:18.230Z,1019.24
2017-05-06T01:52:27.118Z,1019.26
2017-05-06T01:53:36.332Z,1019.24
2017-05-06T01:54:45.370Z,1019.23
2017-05-06T01:55:54.261Z,1019.17
2017-05-06T01:57:03.147Z,1019.22
2017-05-06T01:58:12.363Z,1019.18
2017-05-06T01:59:22.229Z,1019.19
2017-05-06T02:00:31.979Z,1019.16
2017-05-06T02:01:40.866Z,1019.18
2017-05-06T02:02:49.758Z,1019.17
2017-05-06T02:03:58.973Z,1019.15
2017-05-06T02:05:07.865Z,1019.11
2017-05-06T02:06:16.856Z,1019.15
2017-05-06T02:07:25.744Z,1019.14
2017-05-06T02:08:34.957Z,1019.08
2017-05-06T02:09:44.180Z,1019.07
2017-05-06T02:10:54.368Z,1019.03
2017-05-06T02:12:04.067Z,1019
2017-05-06T02:13:12.982Z,1019.01
2017-05-06T02:14:22.847Z,1019.01
2017-05-06T02:15:31.741Z,1018.99
2017-05-06T02:16:40.951Z,1019
2017-05-06T02:17:49.942Z,1018.95
2017-05-06T02:18:58.831Z,1018.89
2017-05-06T02:20:08.047Z,1018.95
2017-05-06T02:21:16.938Z,1018.92
2017-05-06T02:22:26.148Z,1018.89
2017-05-06T02:23:35.414Z,1018.92
2017-05-06T02:24:44.956Z,1018.92
2017-05-06T02:25:54.492Z,1018.91
2017-05-06T02:27:03.379Z,1018.91
2017-05-06T02:28:12.263Z,1018.93
2017-05-06T02:29:21.629Z,1018.9
2017-05-06T02:30:30.844Z,1018.88
2017-05-06T02:31:39.733Z,1018.92
2017-05-06T02:32:48.946Z,1018.89
2017-05-06T02:33:58.163Z,1018.92
2017-05-06T02:35:07.106Z,1018.93
2017-05-06T02:36:15.999Z,1018.92
2017-05-06T02:37:25.209Z,1018.89
2017-05-06T02:38:34.417Z,1018.89
2017-05-06T02:39:43.304Z,1018.92
2017-05-06T02:40:52.573Z,1018.86
2017-05-06T02:42:01.783Z,1018.86
2017-05-06T02:43:10.667Z,1018.86
2017-05-06T02:44:19.877Z,1018.84
2017-05-06T02:45:29.120Z,1018.84
2017-05-06T02:46:38.581Z,1018.84
2017-05-06T02:47:47.509Z,1018.87
2017-05-06T02:48:56.402Z,1018.87
2017-05-06T02:50:05.294Z,1018.81
2017-05-06T02:51:14.181Z,1018.78
2017-05-06T02:52:23.320Z,1018.76
2017-05-06T02:53:32.212Z,1018.75
2017-05-06T02:54:41.428Z,1018.73
2017-05-06T02:55:50.637Z,1018.77
2017-05-06T02:56:59.847Z,1018.72
2017-05-06T02:58:09.038Z,1018.7
2017-05-06T02:59:18.930Z,1018.7
2017-05-06T03:00:28.801Z,1018.66
2017-05-06T03:01:37.692Z,1018.65
2017-05-06T03:02:47.234Z,1018.65
2017-05-06T03:03:56.931Z,1018.67
2017-05-06T03:05:06.475Z,1018.63
2017-05-06T03:06:15.363Z,1018.63
2017-05-06T03:07:24.582Z,1018.63
2017-05-06T03:08:33.798Z,1018.63
2017-05-06T03:09:43.862Z,1018.62
2017-05-06T03:10:53.076Z,1018.59
2017-05-06T03:12:02.612Z,1018.6
2017-05-06T03:13:11.496Z,1018.62
2017-05-06T03:14:21.039Z,1018.56
2017-05-06T03:15:30.954Z,1018.56
2017-05-06T03:16:39.836Z,1018.53
2017-05-06T03:17:48.725Z,1018.54
2017-05-06T03:18:58.263Z,1018.55
2017-05-06T03:20:07.479Z,1018.55
2017-05-06T03:21:16.517Z,1018.57
2017-05-06T03:22:25.430Z,1018.56
2017-05-06T03:23:34.317Z,1018.64
2017-05-06T03:24:43.207Z,1018.57
2017-05-06T03:25:52.747Z,1018.58
2017-05-06T03:27:01.786Z,1018.57
2017-05-06T03:28:10.997Z,1018.55
2017-05-06T03:29:20.216Z,1018.52
2017-05-06T03:30:29.430Z,1018.51
2017-05-06T03:31:38.967Z,1018.49
2017-05-06T03:32:48.285Z,1018.51
2017-05-06T03:33:57.500Z,1018.5
2017-05-06T03:35:06.716Z,1018.47
2017-05-06T03:36:16.253Z,1018.47
2017-05-06T03:37:26.113Z,1018.48
2017-05-06T03:38:35.699Z,1018.41
2017-05-06T03:39:45.242Z,1018.39
2017-05-06T03:40:54.471Z,1018.4
2017-05-06T03:42:03.686Z,1018.38
2017-05-06T03:43:12.897Z,1018.37
2017-05-06T03:44:21.937Z,1018.35
2017-05-06T03:45:31.479Z,1018.35
2017-05-06T03:46:40.699Z,1018.33
2017-05-06T03:47:49.915Z,1018.32
2017-05-06T03:48:59.783Z,1018.29
2017-05-06T03:50:08.680Z,1018.3
2017-05-06T03:51:17.571Z,1018.28
2017-05-06T03:52:26.462Z,1018.26
2017-05-06T03:53:35.697Z,1018.28
2017-05-06T03:54:45.234Z,1018.32
2017-05-06T03:55:54.206Z,1018.28
2017-05-06T03:57:03.415Z,1018.27
2017-05-06T03:58:12.302Z,1018.3
2017-05-06T03:59:21.191Z,1018.27
2017-05-06T04:00:30.732Z,1018.28
2017-05-06T04:01:39.667Z,1018.3
2017-05-06T04:02:48.879Z,1018.33
2017-05-06T04:03:58.101Z,1018.3
2017-05-06T04:05:07.317Z,1018.29
2017-05-06T04:06:16.201Z,1018.29
2017-05-06T04:07:25.511Z,1018.34
2017-05-06T04:08:35.050Z,1018.32
2017-05-06T04:09:43.940Z,1018.35
2017-05-06T04:10:53.478Z,1018.36
2017-05-06T04:12:03.350Z,1018.35
2017-05-06T04:13:12.838Z,1018.38
2017-05-06T04:14:22.053Z,1018.37
2017-05-06T04:15:31.270Z,1018.38
2017-05-06T04:16:40.159Z,1018.32
2017-05-06T04:17:49.373Z,1018.31
2017-05-06T04:18:58.648Z,1018.32
2017-05-06T04:20:07.861Z,1018.3
2017-05-06T04:21:17.076Z,1018.29
2017-05-06T04:22:26.290Z,1018.27
2017-05-06T04:23:35.505Z,1018.26
2017-05-06T04:24:45.097Z,1018.28
2017-05-06T04:25:55.288Z,1018.24
2017-05-06T04:27:04.504Z,1018.29
2017-05-06T04:28:13.392Z,1018.27
2017-05-06T04:29:22.613Z,1018.26
2017-05-06T04:30:31.830Z,1018.27
2017-05-06T04:31:41.047Z,1018.21
2017-05-06T04:32:49.943Z,1018.26
2017-05-06T04:33:59.812Z,1018.28
2017-05-06T04:35:09.351Z,1018.24
2017-05-06T04:36:19.193Z,1018.29
2017-05-06T04:37:28.085Z,1018.29
2017-05-06T04:38:37.626Z,1018.34
2017-05-06T04:39:46.852Z,1018.31
2017-05-06T04:40:56.060Z,1018.32
2017-05-06T04:42:05.528Z,1018.29
2017-05-06T04:43:14.416Z,1018.27
2017-05-06T04:44:23.630Z,1018.32
2017-05-06T04:45:32.517Z,1018.31
2017-05-06T04:46:41.405Z,1018.28
2017-05-06T04:47:50.768Z,1018.24
2017-05-06T04:49:00.632Z,1018.24
2017-05-06T04:50:09.850Z,1018.22
2017-05-06T04:51:18.742Z,1018.26
2017-05-06T04:52:28.285Z,1018.28
2017-05-06T04:53:37.701Z,1018.28
2017-05-06T04:54:46.917Z,1018.27
2017-05-06T04:55:56.130Z,1018.28
2017-05-06T04:57:05.382Z,1018.27
2017-05-06T04:58:14.273Z,1018.27
2017-05-06T04:59:23.260Z,1018.28
2017-05-06T05:00:32.145Z,1018.3
2017-05-06T05:01:41.030Z,1018.28
2017-05-06T05:02:49.924Z,1018.24
2017-05-06T05:03:59.146Z,1018.25
2017-05-06T05:05:08.183Z,1018.22
2017-05-06T05:06:17.101Z,1018.21
2017-05-06T05:07:26.642Z,1018.2
2017-05-06T05:08:35.531Z,1018.23
2017-05-06T05:09:44.422Z,1018.24
2017-05-06T05:10:54.114Z,1018.26
2017-05-06T05:12:03.328Z,1018.26
2017-05-06T05:13:12.546Z,1018.23
2017-05-06T05:14:21.440Z,1018.18
2017-05-06T05:15:30.984Z,1018.18
2017-05-06T05:16:40.250Z,1018.17
2017-05-06T05:17:49.463Z,1018.13
2017-05-06T05:18:58.678Z,1018.12
2017-05-06T05:20:07.569Z,1018.12
2017-05-06T05:21:16.458Z,1018.1
2017-05-06T05:22:25.349Z,1018.1
2017-05-06T05:23:34.562Z,1018.11
2017-05-06T05:24:43.785Z,1018.1
2017-05-06T05:25:52.678Z,1018.13
2017-05-06T05:27:01.569Z,1018.07
2017-05-06T05:28:10.561Z,1018.11
2017-05-06T05:29:19.453Z,1018.1
2017-05-06T05:30:28.671Z,1018.12
2017-05-06T05:31:37.563Z,1018.16
2017-05-06T05:32:47.112Z,1018.16
2017-05-06T05:33:56.325Z,1018.13
2017-05-06T05:35:05.227Z,1018.14
2017-05-06T05:36:14.444Z,1018.16
2017-05-06T05:37:23.331Z,1018.14
2017-05-06T05:38:32.543Z,1018.16
2017-05-06T05:39:41.907Z,1018.12
2017-05-06T05:40:50.796Z,1018.16
2017-05-06T05:41:59.688Z,1018.15
2017-05-06T05:43:08.907Z,1018.14
2017-05-06T05:44:18.450Z,1018.15
2017-05-06T05:45:28.139Z,1018.11
2017-05-06T05:46:37.026Z,1018.14
2017-05-06T05:47:45.920Z,1018.13
2017-05-06T05:48:55.799Z,1018.1
2017-05-06T05:50:05.010Z,1018.1
2017-05-06T05:51:14.382Z,1018.11
2017-05-06T05:52:23.272Z,1018.12
2017-05-06T05:53:32.813Z,1018.14
2017-05-06T05:54:42.028Z,1018.08
2017-05-06T05:55:51.566Z,1018.11
2017-05-06T05:57:00.605Z,1018.09
2017-05-06T05:58:09.491Z,1018.09
2017-05-06T05:59:18.706Z,1018.15
2017-05-06T06:00:27.932Z,1018.13
2017-05-06T06:01:37.144Z,1018.16
2017-05-06T06:02:46.238Z,1018.15
2017-05-06T06:03:55.781Z,1018.17
2017-05-06T06:05:04.997Z,1018.2
2017-05-06T06:06:13.892Z,1018.2
2017-05-06T06:07:22.783Z,1018.16
2017-05-06T06:08:31.975Z,1018.21
2017-05-06T06:09:40.862Z,1018.13
2017-05-06T06:10:49.756Z,1018.17
2017-05-06T06:11:58.970Z,1018.13
2017-05-06T06:13:08.192Z,1018.14
2017-05-06T06:14:17.236Z,1018.1
2017-05-06T06:15:26.125Z,1018.12
2017-05-06T06:16:35.340Z,1018.1
2017-05-06T06:17:44.239Z,1018.13
2017-05-06T06:18:53.455Z,1018.09
2017-05-06T06:20:02.723Z,1018.07
2017-05-06T06:21:12.268Z,1018.07
2017-05-06T06:22:21.490Z,1018.08
2017-05-06T06:23:31.033Z,1018.11
2017-05-06T06:24:40.582Z,1018.12
2017-05-06T06:25:49.853Z,1018.15
2017-05-06T06:26:58.739Z,1018.13
2017-05-06T06:28:07.668Z,1018.11
2017-05-06T06:29:16.883Z,1018.14
2017-05-06T06:30:25.774Z,1018.12
2017-05-06T06:31:34.815Z,1018.13
2017-05-06T06:32:44.362Z,1018.17
2017-05-06T06:33:53.910Z,1018.12
2017-05-06T06:35:02.812Z,1018.11
2017-05-06T06:36:12.026Z,1018.13
2017-05-06T06:37:20.971Z,1018.11
2017-05-06T06:38:30.515Z,1018.1
2017-05-06T06:39:39.736Z,1018.14
2017-05-06T06:40:49.278Z,1018.08
2017-05-06T06:41:58.165Z,1018.09
2017-05-06T06:43:07.310Z,1018.09
2017-05-06T06:44:16.523Z,1018.17
2017-05-06T06:45:25.416Z,1018.13
2017-05-06T06:46:34.634Z,1018.15
2017-05-06T06:47:43.848Z,1018.12
2017-05-06T06:48:53.540Z,1018.13
2017-05-06T06:50:02.757Z,1018.08
2017-05-06T06:51:11.652Z,1018.05
2017-05-06T06:52:20.546Z,1018
2017-05-06T06:53:29.766Z,1018.02
2017-05-06T06:54:39.235Z,1018.05
2017-05-06T06:55:48.451Z,1018.1
2017-05-06T06:56:57.669Z,1018.06
2017-05-06T06:58:06.889Z,1018.07
2017-05-06T06:59:15.780Z,1018.09
2017-05-06T07:00:24.821Z,1018.02
2017-05-06T07:01:33.712Z,1018.06
2017-05-06T07:02:42.928Z,1018.05
2017-05-06T07:03:52.142Z,1018.04
2017-05-06T07:05:01.685Z,1018.01
2017-05-06T07:06:10.828Z,1018
2017-05-06T07:07:19.722Z,1017.95
2017-05-06T07:08:28.618Z,1017.98
2017-05-06T07:09:37.860Z,1017.96
2017-05-06T07:10:47.080Z,1017.94
2017-05-06T07:11:56.348Z,1017.95
2017-05-06T07:13:05.563Z,1017.89
2017-05-06T07:14:14.455Z,1017.89
2017-05-06T07:15:23.352Z,1017.95
2017-05-06T07:16:32.247Z,1017.94
2017-05-06T07:17:41.135Z,1017.94
2017-05-06T07:18:50.350Z,1017.91
2017-05-06T07:19:59.242Z,1017.98
2017-05-06T07:21:08.787Z,1017.98
2017-05-06T07:22:17.683Z,1017.97
2017-05-06T07:23:27.225Z,1017.96
2017-05-06T07:24:36.437Z,1017.92
2017-05-06T07:25:45.652Z,1017.92
2017-05-06T07:26:54.886Z,1017.94
2017-05-06T07:28:04.425Z,1017.93
2017-05-06T07:29:14.272Z,1017.92
2017-05-06T07:30:23.162Z,1017.91
2017-05-06T07:31:32.378Z,1017.95
2017-05-06T07:32:41.268Z,1017.94
2017-05-06T07:33:50.488Z,1017.95
2017-05-06T07:34:59.432Z,1017.97
2017-05-06T07:36:08.325Z,1017.92
2017-05-06T07:37:17.214Z,1017.97
2017-05-06T07:38:26.436Z,1017.95
2017-05-06T07:39:35.327Z,1017.99
2017-05-06T07:40:44.227Z,1017.99
2017-05-06T07:41:53.129Z,1017.96
2017-05-06T07:43:02.355Z,1017.93
2017-05-06T07:44:11.915Z,1017.93
2017-05-06T07:45:21.160Z,1017.87
2017-05-06T07:46:30.058Z,1017.89
2017-05-06T07:47:39.277Z,1017.88
2017-05-06T07:48:48.502Z,1017.9
2017-05-06T07:49:57.934Z,1017.86
2017-05-06T07:51:06.857Z,1017.82
2017-05-06T07:52:16.073Z,1017.81
2017-05-06T07:53:24.992Z,1017.81
2017-05-06T07:54:33.928Z,1017.84
2017-05-06T07:55:43.123Z,1017.84
2017-05-06T07:56:52.013Z,1017.89
2017-05-06T07:58:01.229Z,1017.85
2017-05-06T07:59:10.118Z,1017.88
2017-05-06T08:00:19.346Z,1017.88
2017-05-06T08:01:28.238Z,1017.89
2017-05-06T08:02:37.127Z,1017.9
2017-05-06T08:03:46.348Z,1017.9
2017-05-06T08:04:55.239Z,1017.85
2017-05-06T08:06:04.556Z,1017.87
2017-05-06T08:07:13.448Z,1017.89
2017-05-06T08:08:22.346Z,1017.83
2017-05-06T08:09:31.243Z,1017.9
2017-05-06T08:10:40.786Z,1017.89
2017-05-06T08:11:50.476Z,1017.88
2017-05-06T08:12:59.371Z,1017.91
2017-05-06T08:14:08.262Z,1017.86
2017-05-06T08:15:17.479Z,1017.83
2017-05-06T08:16:26.373Z,1017.84
2017-05-06T08:17:35.738Z,1017.82
2017-05-06T08:18:44.653Z,1017.8
2017-05-06T08:19:53.552Z,1017.79
2017-05-06T08:21:02.446Z,1017.74
2017-05-06T08:22:11.342Z,1017.78
2017-05-06T08:23:20.482Z,1017.77
2017-05-06T08:24:29.702Z,1017.76
2017-05-06T08:25:38.597Z,1017.75
2017-05-06T08:26:47.819Z,1017.75
2017-05-06T08:27:56.717Z,1017.74
2017-05-06T08:29:05.614Z,1017.74
2017-05-06T08:30:14.506Z,1017.75
2017-05-06T08:31:23.401Z,1017.76
2017-05-06T08:32:32.621Z,1017.77
2017-05-06T08:33:41.514Z,1017.7
2017-05-06T08:34:50.884Z,1017.7
2017-05-06T08:35:59.784Z,1017.71
2017-05-06T08:37:09.009Z,1017.71
2017-05-06T08:38:18.225Z,1017.69
2017-05-06T08:39:27.116Z,1017.65
2017-05-06T08:40:36.486Z,1017.59
2017-05-06T08:41:45.753Z,1017.56
2017-05-06T08:42:54.647Z,1017.57
2017-05-06T08:44:03.868Z,1017.57
2017-05-06T08:45:13.113Z,1017.58
2017-05-06T08:46:22.380Z,1017.55
2017-05-06T08:47:31.279Z,1017.53
2017-05-06T08:48:40.495Z,1017.54
2017-05-06T08:49:49.710Z,1017.54
2017-05-06T08:50:58.933Z,1017.52
2017-05-06T08:52:08.203Z,1017.56
2017-05-06T08:53:17.427Z,1017.51
2017-05-06T08:54:26.974Z,1017.52
2017-05-06T08:55:36.194Z,1017.49
2017-05-06T08:56:45.743Z,1017.49
2017-05-06T08:57:54.694Z,1017.5
2017-05-06T08:59:03.583Z,1017.43
2017-05-06T09:00:12.478Z,1017.44
2017-05-06T09:01:21.696Z,1017.46
2017-05-06T09:02:30.932Z,1017.42
2017-05-06T09:03:40.132Z,1017.44
2017-05-06T09:04:49.358Z,1017.43
2017-05-06T09:05:58.905Z,1017.42
2017-05-06T09:07:08.128Z,1017.43
2017-05-06T09:08:17.341Z,1017.42
2017-05-06T09:09:26.487Z,1017.39
2017-05-06T09:10:36.037Z,1017.38
2017-05-06T09:11:45.578Z,1017.4
2017-05-06T09:12:54.501Z,1017.39
2017-05-06T09:14:04.057Z,1017.42
2017-05-06T09:15:13.332Z,1017.39
2017-05-06T09:16:22.227Z,1017.41
2017-05-06T09:17:31.453Z,1017.43
2017-05-06T09:18:41.000Z,1017.46
2017-05-06T09:19:49.904Z,1017.47
2017-05-06T09:20:59.436Z,1017.41
2017-05-06T09:22:08.663Z,1017.4
2017-05-06T09:23:17.897Z,1017.45
2017-05-06T09:24:27.135Z,1017.41
2017-05-06T09:25:36.042Z,1017.4
2017-05-06T09:26:45.261Z,1017.38
2017-05-06T09:27:54.167Z,1017.39
2017-05-06T09:29:03.065Z,1017.34
2017-05-06T09:30:11.962Z,1017.34
2017-05-06T09:31:21.504Z,1017.32
2017-05-06T09:32:30.824Z,1017.36
2017-05-06T09:33:40.373Z,1017.35
2017-05-06T09:34:49.595Z,1017.3
2017-05-06T09:35:58.817Z,1017.3
2017-05-06T09:37:07.714Z,1017.32
2017-05-06T09:38:17.005Z,1017.28
2017-05-06T09:39:25.903Z,1017.28
2017-05-06T09:40:35.122Z,1017.3
2017-05-06T09:41:44.056Z,1017.25
2017-05-06T09:42:53.601Z,1017.22
2017-05-06T09:44:02.978Z,1017.22
2017-05-06T09:45:12.519Z,1017.29
2017-05-06T09:46:21.740Z,1017.26
2017-05-06T09:47:31.282Z,1017.23
2017-05-06T09:48:40.177Z,1017.22
2017-05-06T09:49:49.131Z,1017.26
2017-05-06T09:50:58.355Z,1017.24
2017-05-06T09:52:07.261Z,1017.24
2017-05-06T09:53:16.169Z,1017.25
2017-05-06T09:54:25.062Z,1017.22
2017-05-06T09:55:34.172Z,1017.2
2017-05-06T09:56:43.068Z,1017.19
2017-05-06T09:57:52.592Z,1017.18
2017-05-06T09:59:01.490Z,1017.17
2017-05-06T10:00:10.708Z,1017.13
2017-05-06T10:01:19.705Z,1017.1
2017-05-06T10:02:28.925Z,1017.12
2017-05-06T10:03:37.820Z,1017.15
2017-05-06T10:04:46.713Z,1017.15
2017-05-06T10:05:55.937Z,1017.13
2017-05-06T10:07:05.207Z,1017.05
2017-05-06T10:08:14.105Z,1016.97
2017-05-06T10:09:23.328Z,1017.03
2017-05-06T10:10:32.223Z,1017.04
2017-05-06T10:11:41.143Z,1017.04
2017-05-06T10:12:50.366Z,1017.02
2017-05-06T10:13:59.262Z,1016.97
2017-05-06T10:15:08.158Z,1017.02
2017-05-06T10:16:17.060Z,1017
2017-05-06T10:17:25.960Z,1017.02
2017-05-06T10:18:35.228Z,1016.97
2017-05-06T10:19:44.121Z,1016.97
2017-05-06T10:20:53.344Z,1016.95
2017-05-06T10:22:02.562Z,1016.94
2017-05-06T10:23:11.782Z,1016.92
2017-05-06T10:24:21.203Z,1016.9
2017-05-06T10:25:30.097Z,1016.87
2017-05-06T10:26:38.995Z,1016.87
2017-05-06T10:27:48.557Z,1016.9
2017-05-06T10:28:57.456Z,1016.85
2017-05-06T10:30:06.503Z,1016.85
2017-05-06T10:31:16.050Z,1016.85
2017-05-06T10:32:24.978Z,1016.8
2017-05-06T10:33:34.217Z,1016.8
2017-05-06T10:34:43.456Z,1016.8
2017-05-06T10:35:52.927Z,1016.8
2017-05-06T10:37:01.824Z,1016.75
2017-05-06T10:38:10.718Z,1016.79
2017-05-06T10:39:19.639Z,1016.75
2017-05-06T10:40:28.858Z,1016.72
2017-05-06T10:41:37.864Z,1016.72
2017-05-06T10:42:47.416Z,1016.75
2017-05-06T10:43:56.967Z,1016.72
2017-05-06T10:45:05.868Z,1016.69
2017-05-06T10:46:14.762Z,1016.69
2017-05-06T10:47:23.861Z,1016.67
2017-05-06T10:48:32.757Z,1016.66
2017-05-06T10:49:41.653Z,1016.66
2017-05-06T10:50:51.198Z,1016.65
2017-05-06T10:52:00.424Z,1016.61
2017-05-06T10:53:09.371Z,1016.62
2017-05-06T10:54:18.591Z,1016.62
2017-05-06T10:55:27.485Z,1016.61
2017-05-06T10:56:37.035Z,1016.59
2017-05-06T10:57:46.581Z,1016.54
2017-05-06T10:58:55.957Z,1016.52
2017-05-06T11:00:05.511Z,1016.51
2017-05-06T11:01:14.432Z,1016.5
2017-05-06T11:02:23.333Z,1016.52
2017-05-06T11:03:32.886Z,1016.52
2017-05-06T11:04:42.406Z,1016.44
2017-05-06T11:05:51.307Z,1016.45
2017-05-06T11:07:00.205Z,1016.46
2017-05-06T11:08:09.104Z,1016.41
2017-05-06T11:09:17.999Z,1016.44
2017-05-06T11:10:26.894Z,1016.46
2017-05-06T11:11:35.793Z,1016.43
2017-05-06T11:12:45.012Z,1016.36
2017-05-06T11:13:54.235Z,1016.39
2017-05-06T11:15:03.132Z,1016.36
2017-05-06T11:16:12.126Z,1016.39
2017-05-06T11:17:21.349Z,1016.32
2017-05-06T11:18:30.571Z,1016.35
2017-05-06T11:19:39.470Z,1016.35
2017-05-06T11:20:48.735Z,1016.31
2017-05-06T11:21:57.779Z,1016.29
2017-05-06T11:23:06.678Z,1016.29
2017-05-06T11:24:15.902Z,1016.25
2017-05-06T11:25:24.801Z,1016.2
2017-05-06T11:26:33.699Z,1016.17
2017-05-06T11:27:42.802Z,1016.13
2017-05-06T11:28:52.034Z,1016.12
2017-05-06T11:30:01.588Z,1016.08
2017-05-06T11:31:10.811Z,1016.04
2017-05-06T11:32:19.710Z,1016.06
2017-05-06T11:33:28.790Z,1015.99
2017-05-06T11:34:38.017Z,1015.96
2017-05-06T11:35:47.240Z,1015.96
2017-05-06T11:36:56.137Z,1015.99
2017-05-06T11:38:05.369Z,1015.97
2017-05-06T11:39:14.940Z,1015.92
2017-05-06T11:40:23.833Z,1015.92
2017-05-06T11:41:32.729Z,1015.91
2017-05-06T11:42:41.628Z,1015.92
2017-05-06T11:43:50.523Z,1015.87
2017-05-06T11:44:59.901Z,1015.85
2017-05-06T11:46:08.800Z,1015.88
2017-05-06T11:47:17.753Z,1015.83
2017-05-06T11:48:26.652Z,1015.83
2017-05-06T11:49:35.548Z,1015.79
2017-05-06T11:50:45.023Z,1015.71
2017-05-06T11:51:53.922Z,1015.74
2017-05-06T11:53:02.819Z,1015.76
2017-05-06T11:54:11.742Z,1015.73
2017-05-06T11:55:20.639Z,1015.67
2017-05-06T11:56:29.641Z,1015.7
2017-05-06T11:57:38.540Z,1015.75
2017-05-06T11:58:48.092Z,1015.73
2017-05-06T11:59:56.998Z,1015.7
2017-05-06T12:01:05.892Z,1015.66
2017-05-06T12:02:15.092Z,1015.57
2017-05-06T12:03:23.998Z,1015.54
2017-05-06T12:04:32.895Z,1015.48
2017-05-06T12:05:42.123Z,1015.47
2017-05-06T12:06:51.024Z,1015.46
2017-05-06T12:08:00.074Z,1015.43
2017-05-06T12:09:08.974Z,1015.44
2017-05-06T12:10:17.900Z,1015.41
2017-05-06T12:11:27.445Z,1015.37
2017-05-06T12:12:36.340Z,1015.34
2017-05-06T12:13:45.713Z,1015.26
2017-05-06T12:14:54.613Z,1015.37
2017-05-06T12:16:03.840Z,1015.38
2017-05-06T12:17:12.741Z,1015.35
2017-05-06T12:18:21.995Z,1015.27
2017-05-06T12:19:31.001Z,1015.23
2017-05-06T12:20:39.903Z,1015.25
2017-05-06T12:21:48.801Z,1015.25
2017-05-06T12:22:58.027Z,1015.19
2017-05-06T12:24:06.937Z,1015.17
2017-05-06T12:25:16.141Z,1015.21
2017-05-06T12:26:25.040Z,1015.17
2017-05-06T12:27:33.945Z,1015.15
2017-05-06T12:28:43.179Z,1015.17
2017-05-06T12:29:52.079Z,1015.17
2017-05-06T12:31:01.405Z,1015.18
2017-05-06T12:32:10.955Z,1015.16
2017-05-06T12:33:19.858Z,1015.18
2017-05-06T12:34:29.081Z,1015.1
2017-05-06T12:35:38.309Z,1015.09
2017-05-06T12:36:47.208Z,1015.07
2017-05-06T12:37:56.112Z,1015.19
2017-05-06T12:39:05.012Z,1015.13
2017-05-06T12:40:14.244Z,1015.12
2017-05-06T12:41:23.140Z,1015.07
2017-05-06T12:42:32.889Z,1015.07
2017-05-06T12:43:41.784Z,1015.03
2017-05-06T12:44:50.687Z,1015
2017-05-06T12:45:59.918Z,1014.95
2017-05-06T12:47:08.822Z,1014.92
2017-05-06T12:48:17.879Z,1014.91
2017-05-06T12:49:27.109Z,1014.91
2017-05-06T12:50:36.333Z,1014.88
2017-05-06T12:51:45.249Z,1014.94
2017-05-06T12:52:54.146Z,1014.83
2017-05-06T12:54:03.097Z,1014.83
2017-05-06T12:55:11.996Z,1014.92
2017-05-06T12:56:21.223Z,1014.85
2017-05-06T12:57:30.122Z,1014.81
2017-05-06T12:58:39.022Z,1014.82
2017-05-06T12:59:48.428Z,1014.78
2017-05-06T13:00:57.654Z,1014.79
2017-05-06T13:02:06.882Z,1014.77
2017-05-06T13:03:15.793Z,1014.74
2017-05-06T13:04:25.020Z,1014.73
2017-05-06T13:05:34.246Z,1014.76
2017-05-06T13:06:43.147Z,1014.72
2017-05-06T13:07:52.077Z,1014.69
2017-05-06T13:09:00.978Z,1014.71
2017-05-06T13:10:10.529Z,1014.71
2017-05-06T13:11:19.475Z,1014.67
2017-05-06T13:12:28.378Z,1014.76
2017-05-06T13:13:37.932Z,1014.75
2017-05-06T13:14:47.158Z,1014.67
2017-05-06T13:15:56.055Z,1014.67
2017-05-06T13:17:05.105Z,1014.69
2017-05-06T13:18:14.017Z,1014.7
2017-05-06T13:19:23.245Z,1014.73
2017-05-06T13:20:32.465Z,1014.7
2017-05-06T13:21:41.363Z,1014.67
2017-05-06T13:22:50.410Z,1014.7
2017-05-06T13:23:59.630Z,1014.71
2017-05-06T13:25:08.851Z,1014.69
2017-05-06T13:26:17.747Z,1014.68
2017-05-06T13:27:26.973Z,1014.62
2017-05-06T13:28:36.074Z,1014.6
2017-05-06T13:29:44.972Z,1014.58
2017-05-06T13:30:53.869Z,1014.58
2017-05-06T13:32:03.414Z,1014.6
2017-05-06T13:33:12.314Z,1014.59
2017-05-06T13:34:21.510Z,1014.6
2017-05-06T13:35:30.409Z,1014.59
2017-05-06T13:36:39.316Z,1014.63
2017-05-06T13:37:48.214Z,1014.61
2017-05-06T13:38:57.115Z,1014.59
2017-05-06T13:40:06.491Z,1014.6
2017-05-06T13:41:15.712Z,1014.53
2017-05-06T13:42:24.607Z,1014.52
2017-05-06T13:43:33.501Z,1014.5
2017-05-06T13:44:42.721Z,1014.46
2017-05-06T13:45:52.088Z,1014.46
2017-05-06T13:47:01.632Z,1014.43
2017-05-06T13:48:10.856Z,1014.46
2017-05-06T13:49:19.748Z,1014.42
2017-05-06T13:50:28.648Z,1014.43
2017-05-06T13:51:37.842Z,1014.46
2017-05-06T13:52:46.739Z,1014.46
2017-05-06T13:53:56.613Z,1014.5
2017-05-06T13:55:05.508Z,1014.48
2017-05-06T13:56:14.407Z,1014.45
2017-05-06T13:57:23.711Z,1014.42
2017-05-06T13:58:32.932Z,1014.42
2017-05-06T13:59:41.835Z,1014.44